sensor_id;sensor_type;location;lat;lon;timestamp;P1;durP1;ratioP1;P2;durP2;ratioP2
32445;SDS011;18899;50.748;7.102;2023-04-25T00:01:38;12.13;;;3.67;;
32445;SDS011;18899;50.748;7.102;2023-04-25T00:04:04;9.90;;;3.53;;
32445;SDS011;18899;50.748;7.102;2023-04-25T00:06:33;5.57;;;3.03;;
32445;SDS011;18899;50.748;7.102;2023-04-25T00:09:01;12.30;;;3.40;;
32445;SDS011;18899;50.748;7.102;2023-04-25T00:11:28;13.60;;;4.13;;
32445;SDS011;18899;50.748;7.102;2023-04-25T00:13:55;9.05;;;4.07;;
32445;SDS011;18899;50.748;7.102;2023-04-25T00:16:22;10.10;;;3.33;;
32445;SDS011;18899;50.748;7.102;2023-04-25T00:18:48;10.57;;;3.85;;
32445;SDS011;18899;50.748;7.102;2023-04-25T00:21:17;11.30;;;3.28;;
32445;SDS011;18899;50.748;7.102;2023-04-25T00:23:43;12.80;;;3.75;;
32445;SDS011;18899;50.748;7.102;2023-04-25T00:26:10;12.60;;;3.47;;
32445;SDS011;18899;50.748;7.102;2023-04-25T00:28:36;15.10;;;3.60;;
32445;SDS011;18899;50.748;7.102;2023-04-25T00:31:02;19.85;;;4.53;;
32445;SDS011;18899;50.748;7.102;2023-04-25T00:33:28;11.90;;;3.42;;
32445;SDS011;18899;50.748;7.102;2023-04-25T00:35:55;14.85;;;4.05;;
32445;SDS011;18899;50.748;7.102;2023-04-25T00:38:20;9.25;;;3.42;;
32445;SDS011;18899;50.748;7.102;2023-04-25T00:40:46;11.18;;;3.90;;
32445;SDS011;18899;50.748;7.102;2023-04-25T00:43:11;8.55;;;3.42;;
32445;SDS011;18899;50.748;7.102;2023-04-25T00:45:38;12.98;;;4.15;;
32445;SDS011;18899;50.748;7.102;2023-04-25T00:48:04;14.05;;;4.05;;
32445;SDS011;18899;50.748;7.102;2023-04-25T00:50:30;14.23;;;4.03;;
32445;SDS011;18899;50.748;7.102;2023-04-25T00:53:01;16.20;;;4.20;;
32445;SDS011;18899;50.748;7.102;2023-04-25T00:55:28;16.13;;;3.72;;
32445;SDS011;18899;50.748;7.102;2023-04-25T00:57:54;18.15;;;3.78;;
32445;SDS011;18899;50.748;7.102;2023-04-25T01:00:19;14.50;;;4.10;;
32445;SDS011;18899;50.748;7.102;2023-04-25T01:02:45;11.38;;;3.90;;
32445;SDS011;18899;50.748;7.102;2023-04-25T01:05:11;12.50;;;3.97;;
32445;SDS011;18899;50.748;7.102;2023-04-25T01:07:37;12.18;;;3.85;;
32445;SDS011;18899;50.748;7.102;2023-04-25T01:10:03;11.40;;;4.43;;
32445;SDS011;18899;50.748;7.102;2023-04-25T01:12:29;13.07;;;3.97;;
32445;SDS011;18899;50.748;7.102;2023-04-25T01:14:55;16.00;;;4.00;;
32445;SDS011;18899;50.748;7.102;2023-04-25T01:17:21;16.35;;;4.35;;
32445;SDS011;18899;50.748;7.102;2023-04-25T01:19:47;12.82;;;4.72;;
32445;SDS011;18899;50.748;7.102;2023-04-25T01:22:14;13.35;;;4.68;;
32445;SDS011;18899;50.748;7.102;2023-04-25T01:24:40;16.75;;;3.67;;
32445;SDS011;18899;50.748;7.102;2023-04-25T01:27:06;12.10;;;4.32;;
32445;SDS011;18899;50.748;7.102;2023-04-25T01:29:32;12.18;;;4.10;;
32445;SDS011;18899;50.748;7.102;2023-04-25T01:31:59;15.25;;;4.30;;
32445;SDS011;18899;50.748;7.102;2023-04-25T01:34:26;10.20;;;4.07;;
32445;SDS011;18899;50.748;7.102;2023-04-25T01:36:51;20.33;;;4.72;;
32445;SDS011;18899;50.748;7.102;2023-04-25T01:39:18;16.77;;;3.95;;
32445;SDS011;18899;50.748;7.102;2023-04-25T01:41:45;13.95;;;4.22;;
32445;SDS011;18899;50.748;7.102;2023-04-25T01:44:11;12.68;;;3.97;;
32445;SDS011;18899;50.748;7.102;2023-04-25T01:46:37;17.10;;;4.75;;
32445;SDS011;18899;50.748;7.102;2023-04-25T01:49:02;15.60;;;4.30;;
32445;SDS011;18899;50.748;7.102;2023-04-25T01:51:28;22.15;;;5.20;;
32445;SDS011;18899;50.748;7.102;2023-04-25T01:53:55;12.48;;;4.82;;
32445;SDS011;18899;50.748;7.102;2023-04-25T01:56:21;14.25;;;4.65;;
32445;SDS011;18899;50.748;7.102;2023-04-25T01:58:46;29.15;;;5.60;;
32445;SDS011;18899;50.748;7.102;2023-04-25T02:01:12;22.95;;;5.28;;
32445;SDS011;18899;50.748;7.102;2023-04-25T02:03:38;17.75;;;5.47;;
32445;SDS011;18899;50.748;7.102;2023-04-25T02:06:03;17.38;;;4.90;;
32445;SDS011;18899;50.748;7.102;2023-04-25T02:08:29;14.40;;;4.65;;
32445;SDS011;18899;50.748;7.102;2023-04-25T02:10:55;13.07;;;5.10;;
32445;SDS011;18899;50.748;7.102;2023-04-25T02:13:20;13.77;;;5.97;;
32445;SDS011;18899;50.748;7.102;2023-04-25T02:15:46;13.77;;;5.57;;
32445;SDS011;18899;50.748;7.102;2023-04-25T02:18:11;16.00;;;5.20;;
32445;SDS011;18899;50.748;7.102;2023-04-25T02:20:37;21.33;;;5.80;;
32445;SDS011;18899;50.748;7.102;2023-04-25T02:23:03;20.65;;;5.35;;
32445;SDS011;18899;50.748;7.102;2023-04-25T02:25:29;13.10;;;4.70;;
32445;SDS011;18899;50.748;7.102;2023-04-25T02:27:54;24.23;;;5.03;;
32445;SDS011;18899;50.748;7.102;2023-04-25T02:30:20;16.35;;;4.47;;
32445;SDS011;18899;50.748;7.102;2023-04-25T02:32:45;20.75;;;5.50;;
32445;SDS011;18899;50.748;7.102;2023-04-25T02:35:11;17.50;;;5.00;;
32445;SDS011;18899;50.748;7.102;2023-04-25T02:37:37;16.90;;;4.40;;
32445;SDS011;18899;50.748;7.102;2023-04-25T02:40:04;13.65;;;4.43;;
32445;SDS011;18899;50.748;7.102;2023-04-25T02:42:30;18.20;;;5.30;;
32445;SDS011;18899;50.748;7.102;2023-04-25T02:44:56;25.20;;;5.00;;
32445;SDS011;18899;50.748;7.102;2023-04-25T02:47:21;22.20;;;5.22;;
32445;SDS011;18899;50.748;7.102;2023-04-25T02:49:47;14.98;;;4.72;;
32445;SDS011;18899;50.748;7.102;2023-04-25T02:52:12;18.40;;;4.45;;
32445;SDS011;18899;50.748;7.102;2023-04-25T02:54:38;13.18;;;4.65;;
32445;SDS011;18899;50.748;7.102;2023-04-25T02:57:05;19.63;;;4.57;;
32445;SDS011;18899;50.748;7.102;2023-04-25T02:59:30;16.55;;;5.07;;
32445;SDS011;18899;50.748;7.102;2023-04-25T03:01:56;19.48;;;4.68;;
32445;SDS011;18899;50.748;7.102;2023-04-25T03:04:21;34.13;;;6.05;;
32445;SDS011;18899;50.748;7.102;2023-04-25T03:06:48;14.50;;;4.30;;
32445;SDS011;18899;50.748;7.102;2023-04-25T03:09:18;20.48;;;4.93;;
32445;SDS011;18899;50.748;7.102;2023-04-25T03:11:44;23.60;;;5.35;;
32445;SDS011;18899;50.748;7.102;2023-04-25T03:14:10;21.15;;;4.72;;
32445;SDS011;18899;50.748;7.102;2023-04-25T03:16:35;13.60;;;4.03;;
32445;SDS011;18899;50.748;7.102;2023-04-25T03:19:02;16.75;;;4.72;;
32445;SDS011;18899;50.748;7.102;2023-04-25T03:21:28;22.80;;;5.05;;
32445;SDS011;18899;50.748;7.102;2023-04-25T03:23:54;16.60;;;4.57;;
32445;SDS011;18899;50.748;7.102;2023-04-25T03:26:20;19.15;;;5.03;;
32445;SDS011;18899;50.748;7.102;2023-04-25T03:28:45;26.45;;;5.45;;
32445;SDS011;18899;50.748;7.102;2023-04-25T03:31:11;20.50;;;5.00;;
32445;SDS011;18899;50.748;7.102;2023-04-25T03:33:36;18.13;;;5.20;;
32445;SDS011;18899;50.748;7.102;2023-04-25T03:36:02;19.55;;;5.20;;
32445;SDS011;18899;50.748;7.102;2023-04-25T03:38:28;26.55;;;5.45;;
32445;SDS011;18899;50.748;7.102;2023-04-25T03:40:53;28.40;;;6.32;;
32445;SDS011;18899;50.748;7.102;2023-04-25T03:43:21;22.27;;;5.00;;
32445;SDS011;18899;50.748;7.102;2023-04-25T03:45:46;13.82;;;4.65;;
32445;SDS011;18899;50.748;7.102;2023-04-25T03:48:12;19.55;;;5.50;;
32445;SDS011;18899;50.748;7.102;2023-04-25T03:50:37;18.02;;;5.38;;
32445;SDS011;18899;50.748;7.102;2023-04-25T03:53:03;19.98;;;5.18;;
32445;SDS011;18899;50.748;7.102;2023-04-25T03:55:28;21.27;;;5.97;;
32445;SDS011;18899;50.748;7.102;2023-04-25T03:57:54;17.92;;;5.45;;
32445;SDS011;18899;50.748;7.102;2023-04-25T04:00:20;21.48;;;5.15;;
32445;SDS011;18899;50.748;7.102;2023-04-25T04:02:45;16.00;;;5.68;;
32445;SDS011;18899;50.748;7.102;2023-04-25T04:05:11;20.20;;;5.20;;
32445;SDS011;18899;50.748;7.102;2023-04-25T04:07:36;23.63;;;5.38;;
32445;SDS011;18899;50.748;7.102;2023-04-25T04:10:06;18.50;;;5.13;;
32445;SDS011;18899;50.748;7.102;2023-04-25T04:12:32;20.40;;;5.40;;
32445;SDS011;18899;50.748;7.102;2023-04-25T04:14:58;18.02;;;5.40;;
32445;SDS011;18899;50.748;7.102;2023-04-25T04:17:24;18.33;;;5.65;;
32445;SDS011;18899;50.748;7.102;2023-04-25T04:19:50;16.38;;;5.43;;
32445;SDS011;18899;50.748;7.102;2023-04-25T04:22:15;22.83;;;5.63;;
32445;SDS011;18899;50.748;7.102;2023-04-25T04:24:41;18.15;;;5.47;;
32445;SDS011;18899;50.748;7.102;2023-04-25T04:27:08;21.25;;;5.60;;
32445;SDS011;18899;50.748;7.102;2023-04-25T04:29:35;17.92;;;5.43;;
32445;SDS011;18899;50.748;7.102;2023-04-25T04:32:01;27.45;;;5.40;;
32445;SDS011;18899;50.748;7.102;2023-04-25T04:34:28;12.45;;;5.18;;
32445;SDS011;18899;50.748;7.102;2023-04-25T04:36:53;21.05;;;5.97;;
32445;SDS011;18899;50.748;7.102;2023-04-25T04:39:20;21.88;;;5.72;;
32445;SDS011;18899;50.748;7.102;2023-04-25T04:41:46;21.00;;;5.32;;
32445;SDS011;18899;50.748;7.102;2023-04-25T04:44:11;28.23;;;6.10;;
32445;SDS011;18899;50.748;7.102;2023-04-25T04:46:37;21.50;;;5.93;;
32445;SDS011;18899;50.748;7.102;2023-04-25T04:49:07;21.42;;;5.78;;
32445;SDS011;18899;50.748;7.102;2023-04-25T04:51:36;20.33;;;5.20;;
32445;SDS011;18899;50.748;7.102;2023-04-25T04:54:02;22.58;;;5.22;;
32445;SDS011;18899;50.748;7.102;2023-04-25T04:56:28;15.60;;;5.40;;
32445;SDS011;18899;50.748;7.102;2023-04-25T04:58:55;16.50;;;5.15;;
32445;SDS011;18899;50.748;7.102;2023-04-25T05:01:22;25.73;;;6.10;;
32445;SDS011;18899;50.748;7.102;2023-04-25T05:03:47;27.27;;;6.93;;
32445;SDS011;18899;50.748;7.102;2023-04-25T05:06:13;17.33;;;5.38;;
32445;SDS011;18899;50.748;7.102;2023-04-25T05:08:38;17.77;;;4.93;;
32445;SDS011;18899;50.748;7.102;2023-04-25T05:11:04;23.65;;;6.28;;
32445;SDS011;18899;50.748;7.102;2023-04-25T05:13:30;20.30;;;4.93;;
32445;SDS011;18899;50.748;7.102;2023-04-25T05:15:56;18.20;;;5.22;;
32445;SDS011;18899;50.748;7.102;2023-04-25T05:18:21;17.48;;;5.40;;
32445;SDS011;18899;50.748;7.102;2023-04-25T05:20:47;25.08;;;5.90;;
32445;SDS011;18899;50.748;7.102;2023-04-25T05:23:12;23.05;;;5.72;;
32445;SDS011;18899;50.748;7.102;2023-04-25T05:25:38;22.95;;;5.75;;
32445;SDS011;18899;50.748;7.102;2023-04-25T05:28:03;14.10;;;5.28;;
32445;SDS011;18899;50.748;7.102;2023-04-25T05:30:30;16.13;;;5.45;;
32445;SDS011;18899;50.748;7.102;2023-04-25T05:32:56;17.13;;;5.50;;
32445;SDS011;18899;50.748;7.102;2023-04-25T05:35:21;17.90;;;5.78;;
32445;SDS011;18899;50.748;7.102;2023-04-25T05:37:47;20.88;;;5.75;;
32445;SDS011;18899;50.748;7.102;2023-04-25T05:40:12;16.33;;;5.30;;
32445;SDS011;18899;50.748;7.102;2023-04-25T05:42:38;19.58;;;5.97;;
32445;SDS011;18899;50.748;7.102;2023-04-25T05:45:04;22.02;;;6.20;;
32445;SDS011;18899;50.748;7.102;2023-04-25T05:47:30;17.23;;;5.50;;
32445;SDS011;18899;50.748;7.102;2023-04-25T05:49:55;20.50;;;5.55;;
32445;SDS011;18899;50.748;7.102;2023-04-25T05:52:21;16.60;;;6.38;;
32445;SDS011;18899;50.748;7.102;2023-04-25T05:54:47;18.35;;;5.63;;
32445;SDS011;18899;50.748;7.102;2023-04-25T05:57:22;18.33;;;5.78;;
32445;SDS011;18899;50.748;7.102;2023-04-25T05:59:49;14.65;;;5.22;;
32445;SDS011;18899;50.748;7.102;2023-04-25T06:02:15;17.85;;;6.10;;
32445;SDS011;18899;50.748;7.102;2023-04-25T06:04:41;25.33;;;6.15;;
32445;SDS011;18899;50.748;7.102;2023-04-25T06:07:06;32.55;;;7.43;;
32445;SDS011;18899;50.748;7.102;2023-04-25T06:09:32;21.33;;;6.60;;
32445;SDS011;18899;50.748;7.102;2023-04-25T06:11:57;22.70;;;5.85;;
32445;SDS011;18899;50.748;7.102;2023-04-25T06:14:23;28.58;;;5.93;;
32445;SDS011;18899;50.748;7.102;2023-04-25T06:16:48;22.20;;;5.85;;
32445;SDS011;18899;50.748;7.102;2023-04-25T06:19:14;21.73;;;6.03;;
32445;SDS011;18899;50.748;7.102;2023-04-25T06:21:39;20.13;;;6.22;;
32445;SDS011;18899;50.748;7.102;2023-04-25T06:24:06;25.08;;;6.00;;
32445;SDS011;18899;50.748;7.102;2023-04-25T06:26:32;20.70;;;6.28;;
32445;SDS011;18899;50.748;7.102;2023-04-25T06:28:57;25.70;;;5.65;;
32445;SDS011;18899;50.748;7.102;2023-04-25T06:31:23;26.58;;;6.18;;
32445;SDS011;18899;50.748;7.102;2023-04-25T06:33:48;15.18;;;5.22;;
32445;SDS011;18899;50.748;7.102;2023-04-25T06:36:14;16.73;;;5.13;;
32445;SDS011;18899;50.748;7.102;2023-04-25T06:38:39;19.58;;;4.75;;
32445;SDS011;18899;50.748;7.102;2023-04-25T06:41:05;25.50;;;5.90;;
32445;SDS011;18899;50.748;7.102;2023-04-25T06:43:31;14.35;;;4.30;;
32445;SDS011;18899;50.748;7.102;2023-04-25T06:45:58;28.98;;;5.32;;
32445;SDS011;18899;50.748;7.102;2023-04-25T06:48:25;24.42;;;4.50;;
32445;SDS011;18899;50.748;7.102;2023-04-25T06:50:51;18.33;;;4.47;;
32445;SDS011;18899;50.748;7.102;2023-04-25T06:53:17;12.77;;;3.50;;
32445;SDS011;18899;50.748;7.102;2023-04-25T06:55:43;16.70;;;4.03;;
32445;SDS011;18899;50.748;7.102;2023-04-25T06:58:09;21.50;;;4.07;;
32445;SDS011;18899;50.748;7.102;2023-04-25T07:00:34;21.65;;;4.03;;
32445;SDS011;18899;50.748;7.102;2023-04-25T07:03:00;20.25;;;4.60;;
32445;SDS011;18899;50.748;7.102;2023-04-25T07:05:27;17.55;;;4.78;;
32445;SDS011;18899;50.748;7.102;2023-04-25T07:07:52;20.38;;;3.95;;
32445;SDS011;18899;50.748;7.102;2023-04-25T07:10:18;15.07;;;4.30;;
32445;SDS011;18899;50.748;7.102;2023-04-25T07:12:43;17.77;;;4.20;;
32445;SDS011;18899;50.748;7.102;2023-04-25T07:15:09;17.42;;;3.80;;
32445;SDS011;18899;50.748;7.102;2023-04-25T07:17:36;14.85;;;3.47;;
32445;SDS011;18899;50.748;7.102;2023-04-25T07:20:02;18.65;;;3.90;;
32445;SDS011;18899;50.748;7.102;2023-04-25T07:22:28;19.75;;;4.03;;
32445;SDS011;18899;50.748;7.102;2023-04-25T07:24:54;17.73;;;4.13;;
32445;SDS011;18899;50.748;7.102;2023-04-25T07:27:20;14.43;;;3.47;;
32445;SDS011;18899;50.748;7.102;2023-04-25T07:29:45;20.65;;;3.30;;
32445;SDS011;18899;50.748;7.102;2023-04-25T07:32:11;18.05;;;4.25;;
32445;SDS011;18899;50.748;7.102;2023-04-25T07:34:38;13.45;;;3.72;;
32445;SDS011;18899;50.748;7.102;2023-04-25T07:37:04;13.70;;;3.10;;
32445;SDS011;18899;50.748;7.102;2023-04-25T07:39:30;21.83;;;3.38;;
32445;SDS011;18899;50.748;7.102;2023-04-25T07:41:56;12.90;;;3.40;;
32445;SDS011;18899;50.748;7.102;2023-04-25T07:44:23;14.82;;;2.90;;
32445;SDS011;18899;50.748;7.102;2023-04-25T07:46:49;14.85;;;2.63;;
32445;SDS011;18899;50.748;7.102;2023-04-25T07:49:14;16.60;;;3.60;;
32445;SDS011;18899;50.748;7.102;2023-04-25T07:51:40;21.42;;;3.70;;
32445;SDS011;18899;50.748;7.102;2023-04-25T07:54:08;17.60;;;4.22;;
32445;SDS011;18899;50.748;7.102;2023-04-25T07:56:34;13.68;;;2.97;;
32445;SDS011;18899;50.748;7.102;2023-04-25T07:59:00;15.27;;;3.05;;
32445;SDS011;18899;50.748;7.102;2023-04-25T08:01:26;10.55;;;3.03;;
32445;SDS011;18899;50.748;7.102;2023-04-25T08:03:52;13.65;;;2.90;;
32445;SDS011;18899;50.748;7.102;2023-04-25T08:06:17;13.95;;;2.50;;
32445;SDS011;18899;50.748;7.102;2023-04-25T08:08:43;16.48;;;3.25;;
32445;SDS011;18899;50.748;7.102;2023-04-25T08:11:09;13.25;;;2.67;;
32445;SDS011;18899;50.748;7.102;2023-04-25T08:13:35;15.32;;;3.60;;
32445;SDS011;18899;50.748;7.102;2023-04-25T08:16:02;10.65;;;2.28;;
32445;SDS011;18899;50.748;7.102;2023-04-25T08:18:27;10.85;;;2.50;;
32445;SDS011;18899;50.748;7.102;2023-04-25T08:20:53;11.80;;;3.47;;
32445;SDS011;18899;50.748;7.102;2023-04-25T08:23:18;15.88;;;2.90;;
32445;SDS011;18899;50.748;7.102;2023-04-25T08:25:44;12.15;;;2.33;;
32445;SDS011;18899;50.748;7.102;2023-04-25T08:28:10;11.60;;;2.40;;
32445;SDS011;18899;50.748;7.102;2023-04-25T08:30:36;17.50;;;2.28;;
32445;SDS011;18899;50.748;7.102;2023-04-25T08:33:01;11.38;;;2.55;;
32445;SDS011;18899;50.748;7.102;2023-04-25T08:35:27;10.13;;;2.28;;
32445;SDS011;18899;50.748;7.102;2023-04-25T08:37:53;12.13;;;1.88;;
32445;SDS011;18899;50.748;7.102;2023-04-25T08:40:19;11.70;;;2.13;;
32445;SDS011;18899;50.748;7.102;2023-04-25T08:42:51;10.38;;;2.05;;
32445;SDS011;18899;50.748;7.102;2023-04-25T08:45:18;8.65;;;2.03;;
32445;SDS011;18899;50.748;7.102;2023-04-25T08:47:43;7.55;;;1.90;;
32445;SDS011;18899;50.748;7.102;2023-04-25T08:50:11;12.20;;;2.40;;
32445;SDS011;18899;50.748;7.102;2023-04-25T08:52:37;11.88;;;2.22;;
32445;SDS011;18899;50.748;7.102;2023-04-25T08:55:09;11.93;;;2.10;;
32445;SDS011;18899;50.748;7.102;2023-04-25T08:57:36;10.35;;;2.30;;
32445;SDS011;18899;50.748;7.102;2023-04-25T09:00:03;11.38;;;2.63;;
32445;SDS011;18899;50.748;7.102;2023-04-25T09:02:29;8.05;;;2.13;;
32445;SDS011;18899;50.748;7.102;2023-04-25T09:04:55;8.35;;;2.10;;
32445;SDS011;18899;50.748;7.102;2023-04-25T09:07:21;12.20;;;2.25;;
32445;SDS011;18899;50.748;7.102;2023-04-25T09:09:47;16.13;;;2.63;;
32445;SDS011;18899;50.748;7.102;2023-04-25T09:12:12;13.60;;;2.33;;
32445;SDS011;18899;50.748;7.102;2023-04-25T09:14:38;11.05;;;1.98;;
32445;SDS011;18899;50.748;7.102;2023-04-25T09:17:04;9.63;;;1.67;;
32445;SDS011;18899;50.748;7.102;2023-04-25T09:19:33;12.48;;;2.00;;
32445;SDS011;18899;50.748;7.102;2023-04-25T09:22:01;10.38;;;2.00;;
32445;SDS011;18899;50.748;7.102;2023-04-25T09:24:35;7.60;;;1.67;;
32445;SDS011;18899;50.748;7.102;2023-04-25T09:27:10;10.55;;;2.10;;
32445;SDS011;18899;50.748;7.102;2023-04-25T09:29:38;9.00;;;1.92;;
32445;SDS011;18899;50.748;7.102;2023-04-25T09:37:17;5.38;;;1.70;;
32445;SDS011;18899;50.748;7.102;2023-04-25T09:39:47;8.20;;;1.52;;
32445;SDS011;18899;50.748;7.102;2023-04-25T09:42:21;8.05;;;1.52;;
32445;SDS011;18899;50.748;7.102;2023-04-25T09:44:49;6.47;;;2.13;;
32445;SDS011;18899;50.748;7.102;2023-04-25T09:47:17;6.70;;;1.83;;
32445;SDS011;18899;50.748;7.102;2023-04-25T09:49:43;8.38;;;2.00;;
32445;SDS011;18899;50.748;7.102;2023-04-25T09:52:30;5.72;;;1.65;;
32445;SDS011;18899;50.748;7.102;2023-04-25T09:54:55;10.02;;;1.52;;
32445;SDS011;18899;50.748;7.102;2023-04-25T09:57:23;11.48;;;2.00;;
32445;SDS011;18899;50.748;7.102;2023-04-25T09:59:54;8.63;;;1.50;;
32445;SDS011;18899;50.748;7.102;2023-04-25T10:02:24;6.93;;;1.38;;
32445;SDS011;18899;50.748;7.102;2023-04-25T10:04:52;8.02;;;1.85;;
32445;SDS011;18899;50.748;7.102;2023-04-25T10:07:20;11.80;;;2.15;;
32445;SDS011;18899;50.748;7.102;2023-04-25T10:10:02;7.15;;;2.10;;
32445;SDS011;18899;50.748;7.102;2023-04-25T10:12:30;9.63;;;1.92;;
32445;SDS011;18899;50.748;7.102;2023-04-25T10:14:57;9.93;;;1.88;;
32445;SDS011;18899;50.748;7.102;2023-04-25T10:17:23;4.00;;;1.40;;
32445;SDS011;18899;50.748;7.102;2023-04-25T10:19:51;8.48;;;2.35;;
32445;SDS011;18899;50.748;7.102;2023-04-25T10:22:20;7.03;;;2.03;;
32445;SDS011;18899;50.748;7.102;2023-04-25T10:24:53;11.05;;;2.40;;
32445;SDS011;18899;50.748;7.102;2023-04-25T10:27:20;8.25;;;1.63;;
32445;SDS011;18899;50.748;7.102;2023-04-25T10:29:46;14.60;;;2.35;;
32445;SDS011;18899;50.748;7.102;2023-04-25T10:35:16;6.90;;;1.88;;
32445;SDS011;18899;50.748;7.102;2023-04-25T10:38:02;10.38;;;1.90;;
32445;SDS011;18899;50.748;7.102;2023-04-25T10:40:29;9.65;;;2.22;;
32445;SDS011;18899;50.748;7.102;2023-04-25T10:42:56;11.88;;;2.03;;
32445;SDS011;18899;50.748;7.102;2023-04-25T10:46:25;6.45;;;1.92;;
32445;SDS011;18899;50.748;7.102;2023-04-25T10:51:21;7.38;;;2.03;;
32445;SDS011;18899;50.748;7.102;2023-04-25T10:56:20;17.90;;;2.72;;
32445;SDS011;18899;50.748;7.102;2023-04-25T10:59:11;7.63;;;2.20;;
32445;SDS011;18899;50.748;7.102;2023-04-25T11:01:44;6.13;;;1.73;;
32445;SDS011;18899;50.748;7.102;2023-04-25T11:04:25;10.82;;;2.17;;
32445;SDS011;18899;50.748;7.102;2023-04-25T11:09:45;13.52;;;3.08;;
32445;SDS011;18899;50.748;7.102;2023-04-25T11:12:11;18.92;;;3.17;;
32445;SDS011;18899;50.748;7.102;2023-04-25T11:14:37;11.90;;;2.58;;
32445;SDS011;18899;50.748;7.102;2023-04-25T11:17:03;10.88;;;2.28;;
32445;SDS011;18899;50.748;7.102;2023-04-25T11:19:30;8.30;;;2.33;;
32445;SDS011;18899;50.748;7.102;2023-04-25T11:21:56;14.98;;;2.35;;
32445;SDS011;18899;50.748;7.102;2023-04-25T11:24:29;11.13;;;2.60;;
32445;SDS011;18899;50.748;7.102;2023-04-25T11:26:57;9.00;;;2.05;;
32445;SDS011;18899;50.748;7.102;2023-04-25T11:29:23;7.50;;;2.20;;
32445;SDS011;18899;50.748;7.102;2023-04-25T11:31:52;14.15;;;2.47;;
32445;SDS011;18899;50.748;7.102;2023-04-25T11:34:20;12.55;;;3.00;;
32445;SDS011;18899;50.748;7.102;2023-04-25T11:36:46;8.90;;;2.45;;
32445;SDS011;18899;50.748;7.102;2023-04-25T11:39:12;15.45;;;2.45;;
32445;SDS011;18899;50.748;7.102;2023-04-25T11:41:38;7.88;;;2.05;;
32445;SDS011;18899;50.748;7.102;2023-04-25T11:44:04;7.63;;;2.38;;
32445;SDS011;18899;50.748;7.102;2023-04-25T11:46:30;8.82;;;2.13;;
32445;SDS011;18899;50.748;7.102;2023-04-25T11:48:59;11.68;;;2.72;;
32445;SDS011;18899;50.748;7.102;2023-04-25T11:51:24;9.98;;;2.20;;
32445;SDS011;18899;50.748;7.102;2023-04-25T11:53:51;11.18;;;1.92;;
32445;SDS011;18899;50.748;7.102;2023-04-25T11:56:16;12.40;;;2.78;;
32445;SDS011;18899;50.748;7.102;2023-04-25T11:58:55;7.07;;;2.20;;
32445;SDS011;18899;50.748;7.102;2023-04-25T12:01:31;10.00;;;2.55;;
32445;SDS011;18899;50.748;7.102;2023-04-25T12:04:17;11.97;;;2.17;;
32445;SDS011;18899;50.748;7.102;2023-04-25T12:06:48;9.18;;;1.90;;
32445;SDS011;18899;50.748;7.102;2023-04-25T12:09:16;7.32;;;2.03;;
32445;SDS011;18899;50.748;7.102;2023-04-25T12:11:53;5.32;;;1.73;;
32445;SDS011;18899;50.748;7.102;2023-04-25T12:16:55;6.93;;;1.60;;
32445;SDS011;18899;50.748;7.102;2023-04-25T12:19:22;8.27;;;2.13;;
32445;SDS011;18899;50.748;7.102;2023-04-25T12:21:49;10.77;;;1.70;;
32445;SDS011;18899;50.748;7.102;2023-04-25T12:24:25;5.68;;;1.67;;
32445;SDS011;18899;50.748;7.102;2023-04-25T12:27:13;11.55;;;1.60;;
32445;SDS011;18899;50.748;7.102;2023-04-25T12:32:19;11.23;;;1.70;;
32445;SDS011;18899;50.748;7.102;2023-04-25T12:34:45;9.70;;;1.80;;
32445;SDS011;18899;50.748;7.102;2023-04-25T12:37:11;7.60;;;2.20;;
32445;SDS011;18899;50.748;7.102;2023-04-25T12:39:36;5.68;;;1.67;;
32445;SDS011;18899;50.748;7.102;2023-04-25T12:42:02;4.82;;;1.50;;
32445;SDS011;18899;50.748;7.102;2023-04-25T12:44:28;4.65;;;1.40;;
32445;SDS011;18899;50.748;7.102;2023-04-25T12:46:54;8.85;;;2.00;;
32445;SDS011;18899;50.748;7.102;2023-04-25T12:49:20;11.70;;;2.60;;
32445;SDS011;18899;50.748;7.102;2023-04-25T12:51:45;10.63;;;2.22;;
32445;SDS011;18899;50.748;7.102;2023-04-25T12:54:11;12.02;;;2.25;;
32445;SDS011;18899;50.748;7.102;2023-04-25T12:56:37;11.23;;;1.90;;
32445;SDS011;18899;50.748;7.102;2023-04-25T12:59:03;13.50;;;2.10;;
32445;SDS011;18899;50.748;7.102;2023-04-25T13:01:29;8.70;;;1.90;;
32445;SDS011;18899;50.748;7.102;2023-04-25T13:03:55;6.07;;;1.80;;
32445;SDS011;18899;50.748;7.102;2023-04-25T13:06:20;4.80;;;1.50;;
32445;SDS011;18899;50.748;7.102;2023-04-25T13:08:47;9.70;;;1.63;;
32445;SDS011;18899;50.748;7.102;2023-04-25T13:11:13;6.70;;;1.35;;
32445;SDS011;18899;50.748;7.102;2023-04-25T13:13:40;4.57;;;1.33;;
32445;SDS011;18899;50.748;7.102;2023-04-25T13:16:06;5.85;;;1.50;;
32445;SDS011;18899;50.748;7.102;2023-04-25T13:18:32;4.93;;;1.60;;
32445;SDS011;18899;50.748;7.102;2023-04-25T13:20:58;7.03;;;1.73;;
32445;SDS011;18899;50.748;7.102;2023-04-25T13:23:25;8.10;;;1.60;;
32445;SDS011;18899;50.748;7.102;2023-04-25T13:25:51;5.78;;;1.35;;
32445;SDS011;18899;50.748;7.102;2023-04-25T13:28:17;7.43;;;1.88;;
32445;SDS011;18899;50.748;7.102;2023-04-25T13:30:43;11.90;;;2.20;;
32445;SDS011;18899;50.748;7.102;2023-04-25T13:33:08;9.98;;;1.92;;
32445;SDS011;18899;50.748;7.102;2023-04-25T13:35:35;5.38;;;1.63;;
32445;SDS011;18899;50.748;7.102;2023-04-25T13:38:01;8.52;;;2.08;;
32445;SDS011;18899;50.748;7.102;2023-04-25T13:40:27;7.60;;;1.70;;
32445;SDS011;18899;50.748;7.102;2023-04-25T13:42:53;5.20;;;1.70;;
32445;SDS011;18899;50.748;7.102;2023-04-25T13:45:20;5.88;;;1.70;;
32445;SDS011;18899;50.748;7.102;2023-04-25T13:47:46;10.32;;;1.55;;
32445;SDS011;18899;50.748;7.102;2023-04-25T13:50:11;4.85;;;1.30;;
32445;SDS011;18899;50.748;7.102;2023-04-25T13:52:38;8.38;;;1.77;;
32445;SDS011;18899;50.748;7.102;2023-04-25T13:55:04;8.07;;;1.70;;
32445;SDS011;18899;50.748;7.102;2023-04-25T13:57:31;5.35;;;1.60;;
32445;SDS011;18899;50.748;7.102;2023-04-25T13:59:57;7.15;;;1.95;;
32445;SDS011;18899;50.748;7.102;2023-04-25T14:02:24;6.18;;;1.73;;
32445;SDS011;18899;50.748;7.102;2023-04-25T14:04:49;6.43;;;1.52;;
32445;SDS011;18899;50.748;7.102;2023-04-25T14:07:15;8.73;;;2.05;;
32445;SDS011;18899;50.748;7.102;2023-04-25T14:09:44;8.65;;;1.75;;
32445;SDS011;18899;50.748;7.102;2023-04-25T14:12:10;5.07;;;1.55;;
32445;SDS011;18899;50.748;7.102;2023-04-25T14:14:36;9.55;;;1.73;;
32445;SDS011;18899;50.748;7.102;2023-04-25T14:17:02;8.68;;;1.95;;
32445;SDS011;18899;50.748;7.102;2023-04-25T14:19:27;9.70;;;2.33;;
32445;SDS011;18899;50.748;7.102;2023-04-25T14:21:54;7.18;;;1.55;;
32445;SDS011;18899;50.748;7.102;2023-04-25T14:24:19;13.20;;;2.55;;
32445;SDS011;18899;50.748;7.102;2023-04-25T14:26:45;7.68;;;2.17;;
32445;SDS011;18899;50.748;7.102;2023-04-25T14:29:11;9.68;;;1.92;;
32445;SDS011;18899;50.748;7.102;2023-04-25T14:31:37;8.73;;;1.67;;
32445;SDS011;18899;50.748;7.102;2023-04-25T14:34:04;5.75;;;1.60;;
32445;SDS011;18899;50.748;7.102;2023-04-25T14:36:30;9.02;;;2.15;;
32445;SDS011;18899;50.748;7.102;2023-04-25T14:38:57;5.30;;;1.67;;
32445;SDS011;18899;50.748;7.102;2023-04-25T14:41:22;9.85;;;1.90;;
32445;SDS011;18899;50.748;7.102;2023-04-25T14:43:49;3.72;;;1.40;;
32445;SDS011;18899;50.748;7.102;2023-04-25T14:46:15;4.75;;;1.42;;
32445;SDS011;18899;50.748;7.102;2023-04-25T14:48:41;6.85;;;1.73;;
32445;SDS011;18899;50.748;7.102;2023-04-25T14:51:07;8.45;;;2.13;;
32445;SDS011;18899;50.748;7.102;2023-04-25T14:53:32;4.53;;;1.40;;
32445;SDS011;18899;50.748;7.102;2023-04-25T14:55:58;5.25;;;1.60;;
32445;SDS011;18899;50.748;7.102;2023-04-25T14:58:23;9.13;;;1.50;;